createdAt,value
2018-03-23T00:00:18.894Z,3.78
2018-03-23T00:01:18.936Z,3.81
2018-03-23T00:02:18.949Z,3.91
2018-03-23T00:03:18.673Z,3.88
2018-03-23T00:04:18.914Z,3.84
2018-03-23T00:05:19.700Z,3.88
2018-03-23T00:06:18.892Z,3.86
2018-03-23T00:07:18.881Z,3.83
2018-03-23T00:08:20.298Z,3.87
2018-03-23T00:09:18.618Z,3.81
2018-03-23T00:10:19.134Z,3.96
2018-03-23T00:11:18.856Z,3.83
2018-03-23T00:12:18.587Z,3.83
2018-03-23T00:13:18.831Z,3.84
2018-03-23T00:14:18.324Z,3.81
2018-03-23T00:15:19.458Z,3.94
2018-03-23T00:16:18.827Z,3.86
2018-03-23T00:17:18.817Z,3.81
2018-03-23T00:18:18.534Z,3.86
2018-03-23T00:19:18.540Z,3.81
2018-03-23T00:20:19.522Z,3.92
2018-03-23T00:21:18.780Z,3.92
2018-03-23T00:22:18.504Z,3.88
2018-03-23T00:23:18.749Z,3.86
2018-03-23T00:24:18.473Z,3.94
2018-03-23T00:25:18.880Z,3.87
2018-03-23T00:26:18.725Z,3.86
2018-03-23T00:27:18.454Z,3.86
2018-03-23T00:28:18.701Z,3.94
2018-03-23T00:29:18.440Z,3.87
2018-03-23T00:30:19.510Z,3.84
2018-03-23T00:31:18.448Z,3.83
2018-03-23T00:32:18.673Z,3.8
2018-03-23T00:33:18.411Z,3.81
2018-03-23T00:34:18.396Z,3.86
2018-03-23T00:35:19.222Z,3.81
2018-03-23T00:36:18.641Z,3.77
2018-03-23T00:37:18.639Z,3.78
2018-03-23T00:38:18.363Z,3.8
2018-03-23T00:39:19.711Z,3.7
2018-03-23T00:40:19.217Z,3.76
2018-03-23T00:41:18.336Z,3.76
2018-03-23T00:42:18.326Z,3.73
2018-03-23T00:43:18.583Z,3.76
2018-03-23T00:44:18.593Z,3.76
2018-03-23T00:45:19.396Z,3.76
2018-03-23T00:46:18.543Z,3.78
2018-03-23T00:47:18.285Z,3.66
2018-03-23T00:48:18.541Z,3.76
2018-03-23T00:49:18.522Z,3.77
2018-03-23T00:50:19.387Z,3.77
2018-03-23T00:51:18.506Z,3.8
2018-03-23T00:52:18.489Z,3.69
2018-03-23T00:53:18.235Z,3.76
2018-03-23T00:54:21.679Z,3.76
2018-03-23T00:55:19.488Z,3.74
2018-03-23T00:56:18.459Z,3.74
2018-03-23T00:57:17.940Z,3.76
2018-03-23T00:58:18.437Z,3.76
2018-03-23T00:59:18.174Z,3.73
2018-03-23T01:00:18.701Z,3.7
2018-03-23T01:01:18.157Z,3.66
2018-03-23T01:02:18.151Z,3.66
2018-03-23T01:03:18.409Z,3.66
2018-03-23T01:04:18.381Z,3.63
2018-03-23T01:05:18.772Z,3.58
2018-03-23T01:06:18.375Z,3.51
2018-03-23T01:07:18.354Z,3.58
2018-03-23T01:08:18.346Z,3.55
2018-03-23T01:09:18.081Z,3.62
2018-03-23T01:10:18.494Z,3.59
2018-03-23T01:11:18.319Z,3.58
2018-03-23T01:12:18.329Z,3.56
2018-03-23T01:13:18.054Z,3.59
2018-03-23T01:14:18.040Z,3.62
2018-03-23T01:15:19.255Z,3.58
2018-03-23T01:16:18.286Z,3.6
2018-03-23T01:17:18.264Z,3.63
2018-03-23T01:18:18.266Z,3.59
2018-03-23T01:19:17.996Z,3.59
2018-03-23T01:20:18.829Z,3.58
2018-03-23T01:21:17.998Z,3.58
2018-03-23T01:22:18.239Z,3.53
2018-03-23T01:23:17.968Z,3.55
2018-03-23T01:24:17.695Z,3.51
2018-03-23T01:25:18.717Z,3.47
2018-03-23T01:26:18.193Z,3.51
2018-03-23T01:27:18.174Z,3.56
2018-03-23T01:28:18.172Z,3.56
2018-03-23T01:29:18.154Z,3.56
2018-03-23T01:30:18.851Z,3.65
2018-03-23T01:31:17.923Z,3.53
2018-03-23T01:32:18.135Z,3.51
2018-03-23T01:33:18.120Z,3.47
2018-03-23T01:34:17.861Z,3.5
2018-03-23T01:35:18.406Z,3.48
2018-03-23T01:36:17.849Z,3.47
2018-03-23T01:37:18.087Z,3.5
2018-03-23T01:38:17.823Z,3.51
2018-03-23T01:39:17.820Z,3.56
2018-03-23T01:40:18.836Z,3.51
2018-03-23T01:41:18.045Z,3.41
2018-03-23T01:42:18.038Z,3.58
2018-03-23T01:43:17.772Z,3.45
2018-03-23T01:44:17.775Z,3.51
2018-03-23T01:45:18.867Z,3.51
2018-03-23T01:46:18.011Z,3.48
2018-03-23T01:47:17.764Z,3.55
2018-03-23T01:48:17.990Z,3.59
2018-03-23T01:49:17.995Z,3.56
2018-03-23T01:50:18.405Z,3.58
2018-03-23T01:51:17.955Z,3.51
2018-03-23T01:52:17.948Z,3.48
2018-03-23T01:53:17.687Z,3.55
2018-03-23T01:54:17.919Z,3.48
2018-03-23T01:55:19.011Z,3.56
2018-03-23T01:56:17.918Z,3.53
2018-03-23T01:57:18.261Z,3.55
2018-03-23T01:58:17.891Z,3.51
2018-03-23T01:59:17.642Z,3.48
2018-03-23T02:00:18.417Z,3.48
2018-03-23T02:01:17.352Z,3.48
2018-03-23T02:02:17.847Z,3.47
2018-03-23T02:03:17.899Z,3.45
2018-03-23T02:04:17.837Z,3.59
2018-03-23T02:05:18.702Z,3.58
2018-03-23T02:06:17.366Z,3.51
2018-03-23T02:07:17.867Z,3.53
2018-03-23T02:08:17.812Z,3.45
2018-03-23T02:09:17.542Z,3.44
2018-03-23T02:10:18.806Z,3.41
2018-03-23T02:11:17.508Z,3.4
2018-03-23T02:12:17.780Z,3.42
2018-03-23T02:13:17.555Z,3.44
2018-03-23T02:14:17.498Z,3.45
2018-03-23T02:15:18.715Z,3.45
2018-03-23T02:16:17.820Z,3.34
2018-03-23T02:17:17.481Z,3.44
2018-03-23T02:18:17.451Z,3.42
2018-03-23T02:19:17.715Z,3.29
2018-03-23T02:20:18.444Z,3.5
2018-03-23T02:21:17.761Z,3.56
2018-03-23T02:22:17.676Z,3.42
2018-03-23T02:23:17.410Z,3.4
2018-03-23T02:24:17.656Z,3.47
2018-03-23T02:25:18.710Z,3.48
2018-03-23T02:26:17.378Z,3.44
2018-03-23T02:27:17.622Z,3.47
2018-03-23T02:28:17.353Z,3.32
2018-03-23T02:29:17.595Z,3.41
2018-03-23T02:30:18.274Z,3.4
2018-03-23T02:31:17.584Z,3.4
2018-03-23T02:32:17.062Z,3.41
2018-03-23T02:33:17.316Z,3.41
2018-03-23T02:34:17.064Z,3.47
2018-03-23T02:35:17.898Z,3.47
2018-03-23T02:36:17.571Z,3.56
2018-03-23T02:37:17.557Z,3.45
2018-03-23T02:38:17.271Z,3.45
2018-03-23T02:39:17.250Z,3.45
2018-03-23T02:40:18.248Z,3.48
2018-03-23T02:41:17.495Z,3.59
2018-03-23T02:42:17.478Z,3.56
2018-03-23T02:43:17.503Z,3.59
2018-03-23T02:44:17.207Z,3.65
2018-03-23T02:45:18.166Z,3.63
2018-03-23T02:46:17.198Z,3.63
2018-03-23T02:47:17.195Z,3.59
2018-03-23T02:48:17.425Z,3.58
2018-03-23T02:49:17.431Z,3.66
2018-03-23T02:50:18.150Z,3.6
2018-03-23T02:51:17.408Z,3.63
2018-03-23T02:52:17.453Z,3.6
2018-03-23T02:53:17.393Z,3.63
2018-03-23T02:54:17.382Z,3.69
2018-03-23T02:55:18.677Z,3.65
2018-03-23T02:56:17.368Z,3.58
2018-03-23T02:57:17.099Z,3.45
2018-03-23T02:58:17.340Z,3.47
2018-03-23T02:59:17.082Z,3.53
2018-03-23T03:00:18.207Z,3.51
2018-03-23T03:01:17.306Z,3.5
2018-03-23T03:02:17.033Z,3.55
2018-03-23T03:03:16.775Z,3.53
2018-03-23T03:04:17.295Z,3.51
2018-03-23T03:05:17.913Z,3.53
2018-03-23T03:06:17.264Z,3.53
2018-03-23T03:07:17.252Z,3.59
2018-03-23T03:08:17.243Z,3.55
2018-03-23T03:09:17.236Z,3.58
2018-03-23T03:10:17.749Z,3.6
2018-03-23T03:11:16.960Z,3.56
2018-03-23T03:12:16.941Z,3.63
2018-03-23T03:13:17.187Z,3.59
2018-03-23T03:14:17.179Z,3.65
2018-03-23T03:15:17.897Z,3.63
2018-03-23T03:16:16.910Z,3.59
2018-03-23T03:17:16.910Z,3.6
2018-03-23T03:18:17.149Z,3.77
2018-03-23T03:19:16.883Z,3.65
2018-03-23T03:20:18.088Z,3.6
2018-03-23T03:21:17.183Z,3.62
2018-03-23T03:22:17.114Z,3.55
2018-03-23T03:23:16.844Z,3.56
2018-03-23T03:24:17.102Z,3.59
2018-03-23T03:25:18.360Z,3.6
2018-03-23T03:26:20.122Z,3.63
2018-03-23T03:27:17.072Z,3.62
2018-03-23T03:28:17.059Z,3.6
2018-03-23T03:29:16.545Z,3.62
2018-03-23T03:30:17.688Z,3.56
2018-03-23T03:31:16.772Z,3.58
2018-03-23T03:32:17.013Z,3.63
2018-03-23T03:33:17.010Z,3.59
2018-03-23T03:34:16.992Z,3.66
2018-03-23T03:35:18.253Z,3.68
2018-03-23T03:36:16.738Z,3.73
2018-03-23T03:37:16.707Z,3.83
2018-03-23T03:38:16.956Z,3.74
2018-03-23T03:39:16.964Z,3.84
2018-03-23T03:40:17.901Z,3.81
2018-03-23T03:41:16.927Z,3.84
2018-03-23T03:42:16.924Z,3.8
2018-03-23T03:43:16.653Z,3.77
2018-03-23T03:44:16.650Z,3.73
2018-03-23T03:45:18.437Z,3.76
2018-03-23T03:46:16.621Z,3.74
2018-03-23T03:47:16.359Z,3.78
2018-03-23T03:48:16.871Z,3.78
2018-03-23T03:49:16.863Z,3.8
2018-03-23T03:50:17.303Z,3.81
2018-03-23T03:51:16.579Z,3.77
2018-03-23T03:52:16.823Z,3.86
2018-03-23T03:53:16.818Z,3.8
2018-03-23T03:54:16.554Z,3.86
2018-03-23T03:55:17.426Z,3.81
2018-03-23T03:56:18.594Z,3.77
2018-03-23T03:57:16.520Z,3.83
2018-03-23T03:58:16.775Z,3.76
2018-03-23T03:59:16.763Z,3.69
2018-03-23T04:00:18.058Z,3.77
2018-03-23T04:01:16.748Z,3.76
2018-03-23T04:02:16.753Z,3.77
2018-03-23T04:03:16.736Z,3.86
2018-03-23T04:04:16.724Z,3.86
2018-03-23T04:05:18.063Z,3.78
2018-03-23T04:06:16.446Z,3.81
2018-03-23T04:07:16.700Z,3.88
2018-03-23T04:08:16.435Z,3.81
2018-03-23T04:09:16.434Z,3.83
2018-03-23T04:10:18.028Z,3.84
2018-03-23T04:11:16.658Z,3.86
2018-03-23T04:12:16.648Z,3.94
2018-03-23T04:13:16.658Z,3.87
2018-03-23T04:14:16.375Z,3.86
2018-03-23T04:15:18.371Z,3.88
2018-03-23T04:16:16.356Z,3.86
2018-03-23T04:17:16.609Z,3.98
2018-03-23T04:18:16.597Z,3.88
2018-03-23T04:19:16.337Z,3.84
2018-03-23T04:20:16.975Z,3.87
2018-03-23T04:21:16.667Z,3.91
2018-03-23T04:22:16.614Z,3.83
2018-03-23T04:23:16.291Z,3.87
2018-03-23T04:24:16.289Z,3.88
2018-03-23T04:25:18.142Z,3.84
2018-03-23T04:26:16.264Z,3.96
2018-03-23T04:27:16.544Z,3.98
2018-03-23T04:28:16.518Z,4.02
2018-03-23T04:29:16.508Z,4.01
2018-03-23T04:30:17.655Z,3.96
2018-03-23T04:31:16.227Z,3.98
2018-03-23T04:32:16.208Z,4.02
2018-03-23T04:33:16.460Z,3.98
2018-03-23T04:34:16.464Z,4.04
2018-03-23T04:35:17.305Z,4.02
2018-03-23T04:36:16.437Z,3.98
2018-03-23T04:37:16.168Z,3.98
2018-03-23T04:38:16.421Z,3.95
2018-03-23T04:39:16.406Z,4.01
2018-03-23T04:40:17.708Z,3.96
2018-03-23T04:41:16.129Z,3.99
2018-03-23T04:42:15.872Z,3.96
2018-03-23T04:43:16.392Z,3.98
2018-03-23T04:44:16.367Z,4.04
2018-03-23T04:45:17.535Z,4.01
2018-03-23T04:46:16.370Z,3.99
2018-03-23T04:47:16.365Z,4.12
2018-03-23T04:48:16.071Z,4.01
2018-03-23T04:49:16.063Z,4.05
2018-03-23T04:50:17.712Z,3.99
2018-03-23T04:51:16.316Z,4.02
2018-03-23T04:52:16.040Z,4.02
2018-03-23T04:53:16.030Z,4.02
2018-03-23T04:54:16.018Z,3.95
2018-03-23T04:55:17.948Z,3.92
2018-03-23T04:56:16.250Z,4.04
2018-03-23T04:57:18.306Z,3.96
2018-03-23T04:58:16.235Z,3.98
2018-03-23T04:59:16.286Z,4.04
2018-03-23T05:00:16.889Z,4.06
2018-03-23T05:01:15.950Z,4.08
2018-03-23T05:02:16.200Z,4.13
2018-03-23T05:03:16.196Z,4.08
2018-03-23T05:04:16.182Z,4.05
2018-03-23T05:05:17.408Z,4.08
2018-03-23T05:06:15.920Z,4.08
2018-03-23T05:07:15.921Z,3.99
2018-03-23T05:08:16.164Z,4.01
2018-03-23T05:09:16.137Z,4.01
2018-03-23T05:10:17.310Z,3.98
2018-03-23T05:11:16.138Z,3.98
2018-03-23T05:12:17.963Z,4.06
2018-03-23T05:13:16.121Z,4.08
2018-03-23T05:14:15.588Z,4.05
2018-03-23T05:15:17.423Z,4.12
2018-03-23T05:16:16.075Z,4.08
2018-03-23T05:17:15.809Z,4.22
2018-03-23T05:18:16.061Z,4.16
2018-03-23T05:19:16.052Z,4.19
2018-03-23T05:20:17.577Z,4.19
2018-03-23T05:21:16.034Z,4.19
2018-03-23T05:22:16.025Z,4.2
2018-03-23T05:23:15.759Z,4.24
2018-03-23T05:24:16.004Z,4.17
2018-03-23T05:25:16.671Z,4.26
2018-03-23T05:26:15.996Z,4.28
2018-03-23T05:27:16.253Z,4.28
2018-03-23T05:28:15.972Z,4.26
2018-03-23T05:29:15.721Z,4.31
2018-03-23T05:30:17.519Z,4.35
2018-03-23T05:31:15.948Z,4.35
2018-03-23T05:32:15.935Z,4.24
2018-03-23T05:33:15.677Z,4.24
2018-03-23T05:34:15.932Z,4.28
2018-03-23T05:35:17.629Z,4.28
2018-03-23T05:36:15.896Z,4.31
2018-03-23T05:37:15.889Z,4.3
2018-03-23T05:38:15.633Z,4.28
2018-03-23T05:39:15.620Z,4.35
2018-03-23T05:40:17.658Z,4.37
2018-03-23T05:41:15.861Z,4.38
2018-03-23T05:42:15.853Z,4.38
2018-03-23T05:43:15.330Z,4.45
2018-03-23T05:44:15.830Z,4.49
2018-03-23T05:45:17.485Z,4.42
2018-03-23T05:46:16.004Z,4.42
2018-03-23T05:47:15.807Z,4.49
2018-03-23T05:48:15.799Z,4.52
2018-03-23T05:49:15.787Z,4.48
2018-03-23T05:50:16.943Z,4.55
2018-03-23T05:51:15.542Z,4.52
2018-03-23T05:52:15.767Z,4.52
2018-03-23T05:53:15.749Z,4.44
2018-03-23T05:54:15.751Z,4.34
2018-03-23T05:55:16.885Z,4.4
2018-03-23T05:56:15.216Z,4.38
2018-03-23T05:57:18.566Z,4.37
2018-03-23T05:58:15.713Z,4.38
2018-03-23T05:59:15.704Z,4.38
2018-03-23T06:00:17.039Z,4.38
2018-03-23T06:01:15.690Z,4.37
2018-03-23T06:02:15.689Z,4.41
2018-03-23T06:03:15.164Z,4.49
2018-03-23T06:04:15.673Z,4.44
2018-03-23T06:05:17.116Z,4.38
2018-03-23T06:06:15.643Z,4.41
2018-03-23T06:07:15.630Z,4.4
2018-03-23T06:08:15.624Z,4.45
2018-03-23T06:09:15.620Z,4.4
2018-03-23T06:10:16.484Z,4.48
2018-03-23T06:11:15.604Z,4.45
2018-03-23T06:12:15.590Z,4.48
2018-03-23T06:13:15.586Z,4.44
2018-03-23T06:14:15.570Z,4.53
2018-03-23T06:15:17.351Z,4.55
2018-03-23T06:16:15.302Z,4.55
2018-03-23T06:17:15.558Z,4.56
2018-03-23T06:18:15.286Z,4.59
2018-03-23T06:27:41.537Z,4.6
2018-03-23T06:28:41.253Z,4.6
2018-03-23T06:29:41.244Z,4.59
2018-03-23T06:30:40.719Z,4.62
2018-03-23T06:31:40.972Z,4.77
2018-03-23T06:32:40.957Z,4.71
2018-03-23T06:33:41.025Z,4.82
2018-03-23T06:34:40.950Z,4.73
2018-03-23T06:35:41.178Z,4.8
2018-03-23T06:36:41.173Z,4.77
2018-03-23T06:37:41.180Z,4.78
2018-03-23T06:38:40.891Z,4.84
2018-03-23T06:39:41.142Z,4.75
2018-03-23T06:40:41.123Z,4.74
2018-03-23T06:41:40.868Z,4.8
2018-03-23T06:42:42.902Z,4.86
2018-03-23T06:43:41.108Z,4.82
2018-03-23T06:44:41.091Z,4.89
2018-03-23T06:45:41.082Z,4.8
2018-03-23T06:46:40.830Z,4.84
2018-03-23T06:47:41.064Z,4.87
2018-03-23T06:48:41.175Z,4.75
2018-03-23T06:49:40.788Z,4.75
2018-03-23T06:50:41.039Z,4.71
2018-03-23T06:51:40.771Z,4.75
2018-03-23T06:52:40.777Z,4.78
2018-03-23T06:53:41.051Z,4.86
2018-03-23T06:54:40.998Z,4.87
2018-03-23T06:55:41.000Z,4.8
2018-03-23T06:56:40.737Z,4.86
2018-03-23T06:57:41.847Z,4.77
2018-03-23T06:58:40.779Z,4.96
2018-03-23T06:59:40.960Z,4.89
2018-03-23T07:00:40.953Z,4.89
2018-03-23T07:01:40.954Z,4.86
2018-03-23T07:02:40.675Z,4.94
2018-03-23T07:03:40.926Z,5.04
2018-03-23T07:04:40.915Z,5.07
2018-03-23T07:05:40.660Z,5.08
2018-03-23T07:06:40.900Z,5.07
2018-03-23T07:07:40.892Z,5.15
2018-03-23T07:08:40.640Z,5.15
2018-03-23T07:09:40.878Z,5.17
2018-03-23T07:10:40.622Z,5.3
2018-03-23T07:11:40.861Z,5.3
2018-03-23T07:12:41.648Z,5.29
2018-03-23T07:13:40.847Z,5.38
2018-03-23T07:14:40.853Z,5.38
2018-03-23T07:15:40.958Z,5.46
2018-03-23T07:16:40.571Z,5.43
2018-03-23T07:17:40.311Z,5.51
2018-03-23T07:18:40.548Z,5.47
2018-03-23T07:19:40.546Z,5.43
2018-03-23T07:20:40.799Z,5.51
2018-03-23T07:21:40.796Z,5.54
2018-03-23T07:22:40.793Z,5.62
2018-03-23T07:23:40.775Z,5.56
2018-03-23T07:24:40.786Z,5.57
2018-03-23T07:25:40.526Z,5.62
2018-03-23T07:26:40.251Z,5.51
2018-03-23T07:27:40.889Z,5.56
2018-03-23T07:28:40.753Z,5.59
2018-03-23T07:29:40.225Z,5.62
2018-03-23T07:30:40.472Z,5.54
2018-03-23T07:31:40.476Z,5.54
2018-03-23T07:32:40.703Z,5.48
2018-03-23T07:33:40.700Z,5.47
2018-03-23T07:34:40.698Z,5.48
2018-03-23T07:35:40.201Z,5.56
2018-03-23T07:36:40.672Z,5.54
2018-03-23T07:37:40.504Z,5.5
2018-03-23T07:38:40.658Z,5.48
2018-03-23T07:39:40.654Z,5.64
2018-03-23T07:40:40.643Z,5.69
2018-03-23T07:41:40.641Z,5.72
2018-03-23T07:42:40.392Z,5.79
2018-03-23T07:43:40.370Z,5.83
2018-03-23T07:44:40.613Z,5.89
2018-03-23T07:45:40.632Z,5.94
2018-03-23T07:46:40.614Z,5.89
2018-03-23T07:47:40.591Z,5.99
2018-03-23T07:48:41.394Z,6.07
2018-03-23T07:49:40.329Z,6.09
2018-03-23T07:50:40.348Z,6.19
2018-03-23T07:51:40.578Z,6.24
2018-03-23T07:52:40.560Z,6.26
2018-03-23T07:53:40.301Z,6.27
2018-03-23T07:54:40.553Z,6.27
2018-03-23T07:55:40.538Z,6.26
2018-03-23T07:56:40.330Z,6.28
2018-03-23T07:57:40.324Z,6.35
2018-03-23T07:58:43.320Z,6.44
2018-03-23T07:59:40.510Z,6.36
2018-03-23T08:00:40.504Z,6.36
2018-03-23T08:01:40.507Z,6.46
2018-03-23T08:02:40.237Z,6.48
2018-03-23T08:03:40.488Z,6.48
2018-03-23T08:04:40.484Z,6.59
2018-03-23T08:05:40.489Z,6.72
2018-03-23T08:06:40.213Z,6.74
2018-03-23T08:07:40.476Z,6.82
2018-03-23T08:08:40.199Z,6.82
2018-03-23T08:09:40.454Z,6.89
2018-03-23T08:10:40.457Z,6.97
2018-03-23T08:11:40.198Z,7.03
2018-03-23T08:12:40.445Z,7.03
2018-03-23T08:13:40.197Z,7.07
2018-03-23T08:14:40.438Z,7.17
2018-03-23T08:15:40.433Z,7.24
2018-03-23T08:16:40.159Z,7.32
2018-03-23T08:17:40.418Z,7.32
2018-03-23T08:18:40.414Z,7.43
2018-03-23T08:19:40.136Z,7.51
2018-03-23T08:20:40.404Z,7.7
2018-03-23T08:21:40.401Z,7.79
2018-03-23T08:22:40.403Z,7.85
2018-03-23T08:23:40.399Z,7.88
2018-03-23T08:24:40.117Z,7.87
2018-03-23T08:25:40.169Z,7.93
2018-03-23T08:26:40.152Z,8.1
2018-03-23T08:27:40.094Z,8.13
2018-03-23T08:28:40.107Z,8.19
2018-03-23T08:29:40.357Z,8.24
2018-03-23T08:30:40.354Z,8.28
2018-03-23T08:31:40.075Z,8.3
2018-03-23T08:32:40.368Z,8.38
2018-03-23T08:33:40.348Z,8.37
2018-03-23T08:34:40.329Z,8.37
2018-03-23T08:35:40.326Z,8.41
2018-03-23T08:36:39.821Z,8.46
2018-03-23T08:37:40.369Z,8.44
2018-03-23T08:38:40.310Z,8.42
2018-03-23T08:39:40.309Z,8.52
2018-03-23T08:40:40.042Z,8.52
2018-03-23T08:41:40.043Z,8.45
2018-03-23T08:42:40.360Z,8.38
2018-03-23T08:43:40.298Z,8.34
2018-03-23T08:44:40.532Z,8.27
2018-03-23T08:45:40.058Z,8.41
2018-03-23T08:46:40.030Z,8.37
2018-03-23T08:47:40.285Z,8.36
2018-03-23T08:48:40.017Z,8.37
2018-03-23T08:49:40.259Z,8.33
2018-03-23T08:50:40.269Z,8.33
2018-03-23T08:51:39.998Z,8.31
2018-03-23T08:52:40.250Z,8.38
2018-03-23T08:53:39.988Z,8.34
2018-03-23T08:54:40.009Z,8.31
2018-03-23T08:55:40.230Z,8.3
2018-03-23T08:56:39.996Z,8.44
2018-03-23T08:57:40.227Z,8.36
2018-03-23T08:58:40.219Z,8.37
2018-03-23T08:59:40.668Z,8.36
2018-03-23T09:00:40.217Z,8.41
2018-03-23T09:01:39.980Z,8.36
2018-03-23T09:02:40.215Z,8.37
2018-03-23T09:03:40.204Z,8.41
2018-03-23T09:04:40.196Z,8.41
2018-03-23T09:05:40.198Z,8.37
2018-03-23T09:06:40.203Z,8.33
2018-03-23T09:07:40.190Z,8.19
2018-03-23T09:08:40.190Z,8.26
2018-03-23T09:09:40.045Z,8.18
2018-03-23T09:10:40.192Z,8.19
2018-03-23T09:11:40.185Z,8.2
2018-03-23T09:12:40.216Z,8.16
2018-03-23T09:13:40.173Z,8.18
2018-03-23T09:14:40.171Z,8.06
2018-03-23T09:15:40.221Z,7.91
2018-03-23T09:16:40.339Z,7.91
2018-03-23T09:17:39.909Z,7.88
2018-03-23T09:18:39.909Z,7.7
2018-03-23T09:19:40.137Z,7.7
2018-03-23T09:20:40.194Z,7.75
2018-03-23T09:21:40.129Z,7.75
2018-03-23T09:22:39.897Z,7.72
2018-03-23T09:23:40.126Z,7.7
2018-03-23T09:24:40.124Z,7.6
2018-03-23T09:25:39.873Z,7.6
2018-03-23T09:26:40.115Z,7.53
2018-03-23T09:27:40.168Z,7.6
2018-03-23T09:28:40.102Z,7.57
2018-03-23T09:29:41.735Z,7.5
2018-03-23T09:30:39.845Z,7.43
2018-03-23T09:31:40.086Z,7.53
2018-03-23T09:32:40.071Z,7.56
2018-03-23T09:33:39.840Z,7.56
2018-03-23T09:34:39.839Z,7.63
2018-03-23T09:35:39.842Z,7.67
2018-03-23T09:36:40.062Z,7.76
2018-03-23T09:37:40.077Z,7.72
2018-03-23T09:38:40.043Z,7.8
2018-03-23T09:39:40.852Z,7.79
2018-03-23T09:40:40.053Z,7.66
2018-03-23T09:41:40.057Z,7.72
2018-03-23T09:42:39.805Z,7.76
2018-03-23T09:43:40.044Z,7.77
2018-03-23T09:44:40.038Z,7.93
2018-03-23T09:45:40.022Z,7.95
2018-03-23T09:46:40.022Z,8.01
2018-03-23T09:47:39.497Z,8.15
2018-03-23T09:48:39.789Z,8.06
2018-03-23T09:49:39.743Z,8.12
2018-03-23T09:50:39.991Z,8.18
2018-03-23T09:51:40.000Z,8.18
2018-03-23T09:52:39.990Z,8.16
2018-03-23T09:53:39.462Z,8.16
2018-03-23T09:54:39.992Z,8.08
2018-03-23T09:55:39.728Z,7.98
2018-03-23T09:56:39.454Z,7.88
2018-03-23T09:57:39.716Z,7.77
2018-03-23T09:58:39.969Z,7.82
2018-03-23T09:59:39.960Z,7.76
2018-03-23T10:00:39.695Z,7.82
2018-03-23T10:01:39.942Z,7.91
2018-03-23T10:02:39.942Z,7.8
2018-03-23T10:03:39.947Z,7.82
2018-03-23T10:04:39.939Z,7.85
2018-03-23T10:05:39.655Z,7.9
2018-03-23T10:06:39.949Z,7.93
2018-03-23T10:07:39.659Z,7.97
2018-03-23T10:08:39.936Z,7.94
2018-03-23T10:09:39.930Z,7.93
2018-03-23T10:10:39.637Z,7.85
2018-03-23T10:11:39.895Z,7.94
2018-03-23T10:12:39.632Z,7.93
2018-03-23T10:13:39.897Z,7.91
2018-03-23T10:14:39.641Z,7.91
2018-03-23T10:15:39.615Z,7.82
2018-03-23T10:16:39.609Z,7.94
2018-03-23T10:17:39.868Z,7.85
2018-03-23T10:18:39.859Z,7.93
2018-03-23T10:19:39.589Z,8.09
2018-03-23T10:20:39.589Z,8.06
2018-03-23T10:21:39.949Z,8.27
2018-03-23T10:22:39.842Z,8.45
2018-03-23T10:23:39.846Z,8.56
2018-03-23T10:24:39.847Z,8.73
2018-03-23T10:25:39.834Z,8.95
2018-03-23T10:26:39.591Z,9.16
2018-03-23T10:57:34.401Z,8.24
2018-03-23T10:58:34.359Z,8.37
2018-03-23T10:59:34.600Z,8.38
2018-03-23T11:00:34.603Z,8.42
2018-03-23T11:01:34.079Z,8.38
2018-03-23T11:02:34.573Z,8.41
2018-03-23T11:03:34.298Z,8.44
2018-03-23T11:04:34.570Z,8.37
2018-03-23T11:05:34.545Z,8.42
2018-03-23T11:06:34.286Z,8.31
2018-03-23T11:07:35.335Z,8.3
2018-03-23T11:08:34.551Z,8.44
2018-03-23T11:09:34.724Z,8.38
2018-03-23T11:10:34.521Z,8.36
2018-03-23T11:11:34.512Z,8.38
2018-03-23T11:12:36.423Z,8.27
2018-03-23T11:13:34.553Z,8.34
2018-03-23T11:14:34.490Z,8.23
2018-03-23T11:15:34.490Z,8.24
2018-03-23T11:16:34.215Z,8.15
2018-03-23T11:17:34.234Z,8.28
2018-03-23T11:18:33.973Z,8.2
2018-03-23T11:19:34.470Z,8.2
2018-03-23T11:20:34.197Z,8.19
2018-03-23T11:21:34.454Z,8.18
2018-03-23T11:22:34.185Z,8.18
2018-03-23T11:23:34.192Z,8.13
2018-03-23T11:24:34.311Z,8.06
2018-03-23T11:25:34.170Z,8.01
2018-03-23T11:26:34.170Z,8.01
2018-03-23T11:27:34.432Z,8
2018-03-23T11:28:34.431Z,7.9
2018-03-23T11:29:34.432Z,8.03
2018-03-23T11:30:34.408Z,8.01
2018-03-23T11:31:34.161Z,7.9
2018-03-23T11:32:34.416Z,7.95
2018-03-23T11:33:34.209Z,7.97
2018-03-23T11:34:34.158Z,7.9
2018-03-23T11:35:34.140Z,7.9
2018-03-23T11:36:34.118Z,7.82
2018-03-23T11:37:34.112Z,7.79
2018-03-23T11:38:34.373Z,7.72
2018-03-23T11:39:34.371Z,7.73
2018-03-23T11:40:34.093Z,7.56
2018-03-23T11:41:34.092Z,7.51
2018-03-23T11:42:39.192Z,7.48
2018-03-23T11:43:34.350Z,7.51
2018-03-23T11:44:33.815Z,7.43
2018-03-23T11:45:34.065Z,7.51
2018-03-23T11:46:33.894Z,7.53
2018-03-23T11:47:34.353Z,7.6
2018-03-23T11:48:33.795Z,7.61
2018-03-23T11:49:34.058Z,7.79
2018-03-23T11:50:34.302Z,7.8
2018-03-23T11:51:34.103Z,7.93
2018-03-23T11:52:34.293Z,7.98
2018-03-23T11:53:34.026Z,8.08
2018-03-23T11:54:34.130Z,8.2
2018-03-23T11:55:34.334Z,8.2
2018-03-23T11:56:34.372Z,8.26
2018-03-23T11:57:34.360Z,8.42
2018-03-23T11:58:33.800Z,8.38
2018-03-23T11:59:34.255Z,8.52
2018-03-23T12:00:34.302Z,8.58
2018-03-23T12:01:33.750Z,8.76
2018-03-23T12:02:34.239Z,8.84
2018-03-23T12:03:34.055Z,9.04
2018-03-23T12:04:34.231Z,9.29
2018-03-23T12:05:33.970Z,9.32
2018-03-23T12:06:34.219Z,9.36
2018-03-23T12:07:34.365Z,9.37
2018-03-23T12:08:34.226Z,9.16
2018-03-23T12:09:34.227Z,9.28
2018-03-23T12:10:34.219Z,9.37
2018-03-23T12:11:34.213Z,9.47
2018-03-23T12:12:34.212Z,9.26
2018-03-23T12:13:33.939Z,9.19
2018-03-23T12:14:34.248Z,9.26
2018-03-23T12:15:33.943Z,9.34
2018-03-23T12:16:34.193Z,9.37
2018-03-23T12:17:34.026Z,9.36
2018-03-23T12:18:34.110Z,9.39
2018-03-23T12:19:33.957Z,9.34
2018-03-23T12:20:33.666Z,9.58
2018-03-23T12:21:33.946Z,9.73
2018-03-23T12:22:34.184Z,9.86
2018-03-23T12:23:33.666Z,9.87
2018-03-23T12:24:33.908Z,9.82
2018-03-23T12:25:34.165Z,9.68
2018-03-23T12:26:34.207Z,9.51
2018-03-23T12:27:33.677Z,9.34
2018-03-23T12:28:34.149Z,9.32
2018-03-23T12:29:34.146Z,9.36
2018-03-23T12:30:34.154Z,9.39
2018-03-23T12:31:33.894Z,9.32
2018-03-23T12:32:34.074Z,9.36
2018-03-23T12:33:33.889Z,9.37
2018-03-23T12:34:33.928Z,9.31
2018-03-23T12:35:34.135Z,9.29
2018-03-23T12:36:33.878Z,9.18
2018-03-23T12:37:34.134Z,9.16
2018-03-23T12:38:34.155Z,9.06
2018-03-23T12:39:33.867Z,9.13
2018-03-23T12:40:34.126Z,9.03
2018-03-23T12:41:34.166Z,9.02
2018-03-23T12:42:33.856Z,9.04
2018-03-23T12:43:35.431Z,8.99
2018-03-23T12:44:34.103Z,9.03
2018-03-23T12:45:34.308Z,9.04
2018-03-23T12:46:34.105Z,9.03
2018-03-23T12:47:34.096Z,9.02
2018-03-23T12:48:33.845Z,9.02
2018-03-23T12:49:34.093Z,8.88
2018-03-23T12:50:33.919Z,8.79
2018-03-23T12:51:34.090Z,8.71
2018-03-23T12:52:33.838Z,8.66
2018-03-23T12:53:33.817Z,8.64
2018-03-23T12:54:33.816Z,8.74
2018-03-23T12:55:34.067Z,8.73
2018-03-23T12:56:33.803Z,8.81
2018-03-23T12:57:33.808Z,8.84
2018-03-23T12:58:33.817Z,8.84
2018-03-23T12:59:34.058Z,8.82
2018-03-23T13:00:33.818Z,8.81
2018-03-23T13:01:34.049Z,8.82
2018-03-23T13:02:34.038Z,8.95
2018-03-23T13:03:34.089Z,9.04
2018-03-23T13:04:33.852Z,9.14
2018-03-23T13:05:34.044Z,9.31
2018-03-23T13:06:33.768Z,9.4
2018-03-23T13:07:33.765Z,9.34
2018-03-23T13:08:33.768Z,9.37
2018-03-23T13:09:34.112Z,9.26
2018-03-23T13:10:33.764Z,9.29
2018-03-23T13:11:33.752Z,9.29
2018-03-23T13:12:33.756Z,9.25
2018-03-23T13:13:34.247Z,9.31
2018-03-23T13:14:34.000Z,9.32
2018-03-23T13:15:33.734Z,9.32
2018-03-23T13:16:33.733Z,9.32
2018-03-23T13:17:34.041Z,9.44
2018-03-23T13:18:33.972Z,9.46
2018-03-23T13:19:34.007Z,9.58
2018-03-23T13:20:33.973Z,9.59
2018-03-23T13:21:34.028Z,9.72
2018-03-23T13:22:34.067Z,9.86
2018-03-23T13:23:33.959Z,9.97
2018-03-23T13:24:33.982Z,9.99
2018-03-23T13:25:33.701Z,10.16
2018-03-23T13:26:33.699Z,10.48
2018-03-23T13:27:33.455Z,10.48
2018-03-23T13:28:33.743Z,10.57
2018-03-23T13:29:33.556Z,10.57
2018-03-23T13:30:33.738Z,10.56
2018-03-23T13:31:33.699Z,10.57
2018-03-23T13:32:33.687Z,10.61
2018-03-23T13:33:33.888Z,10.71
2018-03-23T13:34:33.947Z,10.72
2018-03-23T13:35:33.681Z,10.74
2018-03-23T13:36:33.944Z,10.81
2018-03-23T13:37:33.785Z,10.84
2018-03-23T13:38:33.672Z,10.76
2018-03-23T13:39:33.663Z,10.89
2018-03-23T13:40:33.928Z,10.86
2018-03-23T13:41:33.660Z,10.96
2018-03-23T13:42:33.415Z,10.78
2018-03-23T13:43:36.921Z,10.57
2018-03-23T13:44:33.665Z,10.46
2018-03-23T13:45:33.653Z,10.33
2018-03-23T13:46:33.963Z,10.16
2018-03-23T13:47:33.903Z,10.19
2018-03-23T13:48:33.639Z,10.13
2018-03-23T13:49:33.644Z,9.99
2018-03-23T13:50:33.904Z,9.87
2018-03-23T13:51:33.643Z,9.56
2018-03-23T13:52:33.657Z,9.47
2018-03-23T13:53:33.625Z,9.29
2018-03-23T13:54:33.910Z,9.14
2018-03-23T13:55:33.631Z,9.14
2018-03-23T13:56:33.637Z,9.06
2018-03-23T13:57:33.639Z,8.88